Página principal
METAR-TAF:

METAR-TAF

Aeroportos :

King Salmon, Alasca, Estados Unidos

latitude: 58-40-36N, longitude: 156-38-57W, altura: 17 m

Observação actual do tempo

O boletim foi feito há 28 minutos, às 16:54 UTC
Vento 6 kt de sul
Temperatura 10°C
Humidade 82%
Pressão 1021 hPa
Visibilidade: 16.1 km
Encobertoa uma altura de 8500 ft

METAR: PAKN 151654Z 17006KT 10SM OVC085 10/07 A3014 RMK AO2 SLP206 T01000072

Hora: 09:22 (17:22 UTC)

Previsão

O boletim foi feito há 4 horas e 14 minutos, às 13:08 UTC
Previsão válida de 15 às 13 UTC a 16 às 12 UTC
Vento 8 kt de sul
Visibilidade: 10 km
Nuvens fragmentadasa uma altura de 7000 ft
A partir de 15 às 1600 UTC
Vento 4 kt com direcção variável
Visibilidade: 9.7 km
Poucas nuvensa uma altura de 400 ft
neblina
A partir de 15 às 1800 UTC
Vento 6 kt de oes-noroeste
Visibilidade: 10 km
Poucas nuvensa uma altura de 15000 ft

TAF: PAKN 151308Z 1513/1612 17008KT P6SM BKN070 FM151600 VRB04KT 6SM BR FEW004 FM151800 30006KT P6SM FEW150

Observações e previsões do tempo de mais de 4000 aeroportos (mensagens METAR e TAF).

As estações disponíveis são os pontos amarelos e vermelhos sobre o mapa.

Mova o rato sobre o mapa para ver o nome da estação.

Depois clique no ponto para visualizar as observações e previsões meteorológicas.

Para alterar o mapa : clique nos botões verdes com uma cruz preta para aumentar o zoom; no botão verde com uma pitada de zoom; ou nas setas verdes para mapas adjacentes.


METAR-TAF: